Time;durP1;ratioP1;P1;durP2;ratioP2;P2;SDS_P1;SDS_P2;PMS_P1;PMS_P2;Temp;Humidity;BMP_temperature;BMP_pressure;BME280_temperature;BME280_humidity;BME280_pressure;Samples;Min_cycle;Max_cycle;Signal;HPM_P1;HPM_P2
2024/03/02 05:57:16;;;;;;;21.58;12.90;;;3.40;99.40;;;;;;4212240;23;20126;-81
2024/03/02 05:59:18;;;;;;;23.98;12.18;;;3.50;99.60;;;;;;4095841;28;20096;-84
2024/03/02 06:01:22;;;;;;;18.15;11.40;;;3.60;99.90;;;;;;4080546;29;20508;-84
2024/03/02 06:03:24;;;;;;;16.67;11.02;;;3.60;99.60;;;;;;4102756;29;20089;-85
2024/03/02 06:05:26;;;;;;;20.15;11.80;;;3.70;99.20;;;;;;4102641;29;20452;-83
2024/03/02 06:07:28;;;;;;;21.75;12.25;;;3.80;98.80;;;;;;4085888;29;20059;-84
2024/03/02 06:09:30;;;;;;;18.75;11.52;;;3.90;98.70;;;;;;4102425;29;20148;-82
2024/03/02 06:11:32;;;;;;;24.30;12.90;;;4.00;98.50;;;;;;4103628;29;20043;-83
2024/03/02 06:13:35;;;;;;;21.67;12.85;;;4.00;97.90;;;;;;4103238;29;20138;-84
2024/03/02 06:15:37;;;;;;;25.15;12.85;;;4.00;98.00;;;;;;4100367;29;20448;-83
2024/03/02 06:17:39;;;;;;;20.00;11.27;;;4.00;97.60;;;;;;4082824;29;20126;-81
2024/03/02 06:19:40;;;;;;;20.45;11.35;;;4.00;97.40;;;;;;4101074;28;20051;-85
2024/03/02 06:21:42;;;;;;;21.95;12.30;;;4.00;97.20;;;;;;4098213;29;20054;-81
2024/03/02 06:23:44;;;;;;;19.90;11.20;;;4.10;96.90;;;;;;4103210;29;20102;-82
2024/03/02 06:25:46;;;;;;;21.27;11.85;;;4.10;96.50;;;;;;4102143;29;20094;-83
2024/03/02 06:27:46;;;;;;;23.02;12.63;;;4.00;96.40;;;;;;4102540;29;20147;-80
2024/03/02 06:29:51;;;;;;;17.90;11.07;;;3.90;96.60;;;;;;4102043;29;20097;-84
2024/03/02 06:31:53;;;;;;;21.52;13.07;;;3.80;96.70;;;;;;4102876;29;20512;-84
2024/03/02 06:33:55;;;;;;;25.13;13.98;;;3.70;97.60;;;;;;4096579;28;20168;-81
2024/03/02 06:35:56;;;;;;;23.08;13.82;;;3.70;98.30;;;;;;4098104;28;20055;-82
2024/03/02 06:37:57;;;;;;;22.08;12.90;;;3.70;98.20;;;;;;4102822;29;20110;-82
2024/03/02 06:39:58;;;;;;;27.40;12.35;;;3.90;98.20;;;;;;4102885;29;20492;-85
2024/03/02 06:42:00;;;;;;;19.17;11.73;;;3.90;97.70;;;;;;4102867;29;20114;-84
2024/03/02 06:44:02;;;;;;;16.60;10.13;;;4.00;97.80;;;;;;4102924;29;20059;-83
2024/03/02 06:46:09;;;;;;;15.15;10.02;;;4.00;97.90;;;;;;4102579;29;20110;-83
2024/03/02 06:48:11;;;;;;;16.55;10.70;;;4.10;97.80;;;;;;4102691;29;20122;-82
2024/03/02 06:50:13;;;;;;;16.20;9.98;;;4.20;97.40;;;;;;4075658;29;20046;-80
2024/03/02 06:52:16;;;;;;;17.80;11.15;;;4.20;97.40;;;;;;4086977;29;20052;-82
2024/03/02 06:54:18;;;;;;;17.02;10.85;;;4.20;97.50;;;;;;4088612;29;20106;-82
2024/03/02 06:56:20;;;;;;;17.65;11.18;;;4.30;97.10;;;;;;4087227;29;20485;-83
2024/03/02 06:58:21;;;;;;;15.77;9.80;;;4.30;96.90;;;;;;4100061;28;20130;-82
2024/03/02 07:00:23;;;;;;;16.92;10.35;;;4.20;96.30;;;;;;4102468;29;20055;-80
2024/03/02 07:02:27;;;;;;;17.70;10.80;;;4.30;96.90;;;;;;4102612;29;20051;-83
2024/03/02 07:04:29;;;;;;;22.08;12.52;;;4.40;96.60;;;;;;4102029;28;20058;-82
2024/03/02 07:06:30;;;;;;;19.50;10.98;;;4.40;96.60;;;;;;4102007;28;20110;-81
2024/03/02 07:08:32;;;;;;;17.05;10.13;;;4.40;96.30;;;;;;4093856;29;20493;-82
2024/03/02 07:10:36;;;;;;;17.05;10.70;;;4.30;96.20;;;;;;4094880;29;20062;-85
2024/03/02 07:12:38;;;;;;;19.00;10.85;;;4.30;96.40;;;;;;4101368;28;20090;-88
2024/03/02 07:15:04;;;;;;;18.45;10.65;;;4.30;96.50;;;;;;4091128;29;20051;-88
2024/03/02 07:17:07;;;;;;;19.35;10.93;;;4.30;96.40;;;;;;4096742;29;20047;-88
2024/03/02 07:19:10;;;;;;;19.92;11.07;;;4.20;96.40;;;;;;4102601;29;20052;-81
2024/03/02 07:21:12;;;;;;;17.05;10.52;;;4.30;96.30;;;;;;4102998;29;20504;-89
2024/03/02 07:23:14;;;;;;;16.65;10.55;;;4.40;96.70;;;;;;4102500;28;20055;-85
2024/03/02 07:25:16;;;;;;;19.48;10.70;;;4.50;96.60;;;;;;4102190;28;20093;-85
2024/03/02 07:27:17;;;;;;;17.88;10.85;;;4.50;96.30;;;;;;4102392;28;20044;-88
2024/03/02 07:29:19;;;;;;;18.65;11.30;;;4.60;96.60;;;;;;4093876;28;20059;-86
2024/03/02 07:31:21;;;;;;;21.10;11.57;;;4.60;96.80;;;;;;4097944;29;20059;-87
2024/03/02 07:33:23;;;;;;;22.92;12.10;;;4.60;96.70;;;;;;4102844;28;20082;-87
2024/03/02 07:35:27;;;;;;;19.70;11.75;;;4.70;97.00;;;;;;4090897;29;20066;-88
2024/03/02 07:37:29;;;;;;;19.48;11.65;;;4.60;97.10;;;;;;4086639;29;20107;-87
2024/03/02 07:39:31;;;;;;;19.42;11.60;;;4.60;97.30;;;;;;4086336;29;20063;-84
2024/03/02 07:41:33;;;;;;;19.67;11.50;;;4.60;97.30;;;;;;4097984;28;20134;-83
2024/03/02 07:43:35;;;;;;;20.13;11.48;;;4.70;97.40;;;;;;4097671;29;20142;-83
2024/03/02 07:45:39;;;;;;;20.27;12.20;;;4.70;97.50;;;;;;4101489;28;20090;-83
2024/03/02 07:47:41;;;;;;;20.98;12.00;;;4.80;97.40;;;;;;4100708;28;20051;-84
2024/03/02 07:49:43;;;;;;;19.13;11.23;;;4.90;97.40;;;;;;4101566;29;20099;-84
2024/03/02 07:51:46;;;;;;;19.05;12.15;;;4.90;97.40;;;;;;4101520;28;20058;-78
2024/03/02 07:53:49;;;;;;;25.35;14.25;;;5.00;97.50;;;;;;4101186;28;20125;-80
2024/03/02 07:55:51;;;;;;;23.48;14.63;;;5.10;97.60;;;;;;4101291;29;20051;-80
2024/03/02 07:57:53;;;;;;;21.98;12.30;;;5.10;97.60;;;;;;4100309;28;20444;-81
2024/03/02 07:59:55;;;;;;;21.58;12.43;;;5.10;97.60;;;;;;4105108;28;20055;-81
2024/03/02 08:01:57;;;;;;;21.77;11.93;;;5.20;97.60;;;;;;4104823;28;20047;-81
2024/03/02 08:03:59;;;;;;;23.08;13.02;;;5.30;97.80;;;;;;4090122;29;20047;-83
2024/03/02 08:06:01;;;;;;;22.10;13.48;;;5.30;97.90;;;;;;4102687;29;20051;-78
2024/03/02 08:08:04;;;;;;;20.55;12.80;;;5.30;98.00;;;;;;4102758;28;20051;-78
2024/03/02 08:10:08;;;;;;;17.60;10.77;;;5.40;97.90;;;;;;4099546;29;20128;-78
2024/03/02 08:12:10;;;;;;;22.52;12.90;;;5.40;97.90;;;;;;4100843;28;20059;-78
2024/03/02 08:14:12;;;;;;;22.38;11.75;;;5.50;97.90;;;;;;4100618;29;20047;-79
2024/03/02 08:16:14;;;;;;;18.65;11.05;;;5.50;97.90;;;;;;4101642;29;20135;-78
2024/03/02 08:18:16;;;;;;;20.50;10.88;;;5.60;97.80;;;;;;4101538;29;20102;-79
2024/03/02 08:20:18;;;;;;;17.52;10.68;;;5.60;97.70;;;;;;4101531;28;20047;-80
2024/03/02 08:22:21;;;;;;;19.42;11.98;;;5.70;97.60;;;;;;4101279;28;20051;-79
2024/03/02 08:24:24;;;;;;;19.75;11.80;;;5.70;97.60;;;;;;4102752;28;20053;-83
2024/03/02 08:26:28;;;;;;;18.70;11.07;;;5.70;97.40;;;;;;4102864;28;20106;-84
2024/03/02 08:28:30;;;;;;;19.95;12.13;;;5.70;97.50;;;;;;4103145;29;20515;-82
2024/03/02 08:30:32;;;;;;;20.55;11.63;;;5.70;97.70;;;;;;4102528;28;20078;-82
2024/03/02 08:32:33;;;;;;;19.92;11.80;;;5.70;97.70;;;;;;4102630;29;20051;-79
2024/03/02 08:34:35;;;;;;;21.23;11.98;;;5.80;97.60;;;;;;4100728;28;20073;-77
2024/03/02 08:36:36;;;;;;;25.02;12.07;;;5.80;97.60;;;;;;4099819;28;20078;-75
2024/03/02 08:38:38;;;;;;;30.42;13.13;;;5.90;97.80;;;;;;4100672;29;20058;-74
2024/03/02 08:40:42;;;;;;;22.35;12.30;;;6.00;97.50;;;;;;4092330;29;20043;-83
2024/03/02 08:42:45;;;;;;;21.90;11.70;;;6.00;97.40;;;;;;4108259;29;20054;-83
2024/03/02 08:44:47;;;;;;;19.80;11.38;;;6.00;97.10;;;;;;4107012;28;20397;-83
2024/03/02 08:46:49;;;;;;;21.48;11.10;;;6.10;96.80;;;;;;4107110;29;20055;-80
2024/03/02 08:48:51;;;;;;;24.70;11.05;;;6.10;96.70;;;;;;4094439;28;20444;-78
2024/03/02 08:50:52;;;;;;;23.77;11.38;;;6.10;96.60;;;;;;4104569;28;20051;-80
2024/03/02 08:52:54;;;;;;;15.27;10.35;;;6.20;96.60;;;;;;4110762;28;20073;-78
2024/03/02 08:54:56;;;;;;;16.42;10.68;;;6.20;96.50;;;;;;4100872;28;20439;-79
2024/03/02 08:56:59;;;;;;;14.18;9.52;;;6.20;96.60;;;;;;4114420;28;20061;-78
2024/03/02 08:59:01;;;;;;;14.73;9.18;;;6.30;96.70;;;;;;4117084;28;20093;-78
2024/03/02 09:01:03;;;;;;;16.73;9.70;;;6.30;96.60;;;;;;4115852;28;20066;-78
2024/03/02 09:03:06;;;;;;;15.27;8.98;;;6.40;96.80;;;;;;4102926;28;20055;-78
2024/03/02 09:05:09;;;;;;;15.85;9.02;;;6.40;96.90;;;;;;4100596;29;20105;-78
2024/03/02 09:07:12;;;;;;;16.85;10.32;;;6.50;96.90;;;;;;4099439;29;20469;-80
2024/03/02 09:09:14;;;;;;;15.50;10.25;;;6.50;97.30;;;;;;4104297;28;20085;-79
2024/03/02 09:11:16;;;;;;;16.95;10.93;;;6.50;97.20;;;;;;4085816;29;20264;-80
2024/03/02 09:13:20;;;;;;;16.80;10.73;;;6.50;97.20;;;;;;4104651;28;20062;-81
2024/03/02 09:15:22;;;;;;;16.65;11.52;;;6.50;97.50;;;;;;4104514;28;20071;-80
2024/03/02 09:17:24;;;;;;;18.70;12.07;;;6.60;97.00;;;;;;4103434;29;20051;-79
2024/03/02 09:19:26;;;;;;;17.95;11.95;;;6.70;96.90;;;;;;4101567;29;20079;-80
2024/03/02 09:21:29;;;;;;;18.85;12.00;;;6.70;96.90;;;;;;4102598;28;20054;-82
2024/03/02 09:23:31;;;;;;;18.20;11.15;;;6.70;97.10;;;;;;4103281;28;20544;-78
2024/03/02 09:25:33;;;;;;;17.45;11.48;;;6.80;97.00;;;;;;4105365;28;20613;-79
2024/03/02 09:27:38;;;;;;;16.55;10.32;;;6.80;97.40;;;;;;4104905;28;20126;-78
2024/03/02 09:29:42;;;;;;;16.50;10.40;;;6.80;97.30;;;;;;4102999;28;20054;-78
2024/03/02 09:31:44;;;;;;;15.80;10.95;;;6.70;97.30;;;;;;4102491;28;20066;-80
2024/03/02 09:33:46;;;;;;;15.55;10.82;;;6.90;97.50;;;;;;4103666;28;20050;-78
2024/03/02 09:35:49;;;;;;;17.15;11.45;;;6.90;97.40;;;;;;4099754;28;20061;-79
2024/03/02 09:37:51;;;;;;;17.30;10.70;;;7.00;97.70;;;;;;4095197;29;20052;-77
2024/03/02 09:39:54;;;;;;;15.70;10.75;;;7.10;97.50;;;;;;4093059;28;20055;-80
2024/03/02 09:41:56;;;;;;;15.25;10.27;;;7.20;97.40;;;;;;4103659;29;20083;-82
2024/03/02 09:43:59;;;;;;;16.67;10.98;;;7.20;97.70;;;;;;4106340;28;20116;-80
2024/03/02 09:46:02;;;;;;;16.92;10.48;;;7.30;97.60;;;;;;4102553;28;20051;-79
2024/03/02 09:48:05;;;;;;;14.25;9.73;;;7.40;97.30;;;;;;4103697;28;20067;-80
2024/03/02 09:50:09;;;;;;;13.10;9.38;;;7.50;97.30;;;;;;4103691;28;20110;-81
2024/03/02 09:52:11;;;;;;;15.18;10.18;;;7.60;97.10;;;;;;4103889;28;20043;-80
2024/03/02 09:54:14;;;;;;;15.25;9.57;;;7.70;96.80;;;;;;4101487;28;20131;-81
2024/03/02 09:56:18;;;;;;;13.32;9.13;;;7.80;96.70;;;;;;4101821;28;20481;-80
2024/03/02 09:58:20;;;;;;;15.20;9.18;;;7.80;96.00;;;;;;4103432;29;20074;-81
2024/03/02 10:00:22;;;;;;;12.75;8.68;;;7.90;95.90;;;;;;4100483;29;20055;-78
2024/03/02 10:02:25;;;;;;;13.00;8.32;;;8.00;95.70;;;;;;4101005;29;20051;-78
2024/03/02 10:04:28;;;;;;;13.25;8.63;;;8.10;95.70;;;;;;4099630;28;20048;-82
2024/03/02 10:06:30;;;;;;;12.95;8.32;;;8.20;95.60;;;;;;4101799;29;20134;-78
2024/03/02 10:08:44;;;;;;;12.45;7.85;;;8.20;95.20;;;;;;4106201;28;20083;-83
2024/03/02 10:10:46;;;;;;;11.00;7.18;;;8.30;94.90;;;;;;4103782;28;20118;-77
2024/03/02 10:12:49;;;;;;;14.00;8.43;;;8.30;94.80;;;;;;4108721;28;20055;-77
2024/03/02 10:15:07;;;;;;;16.42;8.88;;;8.40;94.50;;;;;;4103923;28;20055;-77
2024/03/02 10:17:10;;;;;;;13.70;7.72;;;8.50;94.20;;;;;;4105651;29;20111;-78
2024/03/02 10:19:32;;;;;;;14.63;7.95;;;8.50;94.00;;;;;;4103989;28;20055;-78
2024/03/02 10:21:35;;;;;;;11.80;7.55;;;8.60;93.60;;;;;;4108876;29;20138;-82
2024/03/02 10:23:38;;;;;;;10.07;7.07;;;8.70;93.50;;;;;;4108963;28;20047;-77
2024/03/02 10:25:40;;;;;;;12.63;7.38;;;8.70;93.20;;;;;;4104941;28;20488;-81
2024/03/02 10:27:42;;;;;;;13.48;7.03;;;8.80;93.10;;;;;;4103426;28;20051;-81
2024/03/02 10:29:48;;;;;;;9.95;6.05;;;8.90;93.20;;;;;;4103197;28;20047;-86
2024/03/02 10:31:49;;;;;;;12.15;6.65;;;8.90;92.70;;;;;;4102551;29;20058;-81
2024/03/02 10:33:51;;;;;;;10.18;6.40;;;9.00;92.60;;;;;;4106377;29;20105;-81
2024/03/02 10:35:54;;;;;;;10.52;6.10;;;9.10;92.60;;;;;;4104809;29;20110;-83
2024/03/02 10:37:55;;;;;;;10.75;5.82;;;9.20;92.30;;;;;;4102455;28;20059;-83
2024/03/02 10:39:57;;;;;;;8.57;4.68;;;9.30;92.40;;;;;;4107842;29;20074;-83
2024/03/02 10:42:02;;;;;;;10.15;5.50;;;9.30;92.00;;;;;;4104199;29;20468;-82
2024/03/02 10:44:06;;;;;;;11.45;5.88;;;9.40;92.20;;;;;;4102722;28;20054;-85
2024/03/02 10:46:08;;;;;;;10.05;6.10;;;9.50;92.40;;;;;;4102608;29;20510;-77
2024/03/02 10:48:10;;;;;;;10.23;6.38;;;9.50;92.20;;;;;;4101981;28;20626;-80
2024/03/02 10:50:12;;;;;;;10.52;5.95;;;9.60;92.30;;;;;;4102225;29;20043;-79
2024/03/02 10:52:15;;;;;;;11.27;5.90;;;9.70;92.40;;;;;;4095427;29;20637;-80
2024/03/02 10:54:18;;;;;;;10.68;5.70;;;9.70;92.10;;;;;;4102672;29;20047;-80
2024/03/02 10:56:31;;;;;;;9.30;5.40;;;9.80;91.80;;;;;;4102270;29;20182;-80
2024/03/02 10:58:34;;;;;;;9.52;5.78;;;9.90;91.90;;;;;;4101758;29;20059;-78
2024/03/02 11:00:40;;;;;;;9.82;5.57;;;9.90;91.20;;;;;;4102062;29;20082;-80
2024/03/02 11:02:46;;;;;;;;;;;10.00;91.10;;;;;;4102295;29;20047;-81
2024/03/02 11:04:51;;;;;;;9.13;5.43;;;10.10;90.90;;;;;;4102250;28;19926;-84
2024/03/02 11:06:59;;;;;;;10.95;5.68;;;10.10;90.60;;;;;;4101647;28;20051;-80
2024/03/02 11:09:09;;;;;;;11.32;5.90;;;10.20;90.80;;;;;;4101025;28;20043;-80
2024/03/02 11:11:17;;;;;;;11.55;6.32;;;10.30;91.10;;;;;;4101984;29;20464;-83
2024/03/02 11:13:25;;;;;;;12.32;6.80;;;10.30;91.20;;;;;;4101903;28;20117;-81
2024/03/02 11:15:28;;;;;;;10.88;6.43;;;10.40;91.00;;;;;;4102426;28;20051;-81
2024/03/02 11:17:31;;;;;;;9.50;5.78;;;10.50;91.00;;;;;;4103405;29;20048;-81
2024/03/02 11:19:34;;;;;;;13.32;6.47;;;10.60;90.70;;;;;;4105353;29;20047;-82
2024/03/02 11:21:36;;;;;;;11.52;5.78;;;10.70;90.90;;;;;;4103716;28;20051;-83
2024/03/02 11:23:38;;;;;;;10.40;5.97;;;10.70;90.30;;;;;;4101966;28;20451;-82
2024/03/02 11:25:41;;;;;;;10.45;5.40;;;10.80;90.20;;;;;;4105913;29;20057;-83
2024/03/02 11:28:01;;;;;;;8.13;4.53;;;10.90;90.30;;;;;;4105535;28;20196;-81
2024/03/02 11:30:03;;;;;;;7.72;4.65;;;11.00;90.30;;;;;;4104357;28;20783;-84
2024/03/02 11:32:07;;;;;;;8.40;3.95;;;11.10;90.30;;;;;;4105184;29;20055;-81
2024/03/02 11:34:29;;;;;;;15.55;4.38;;;11.20;90.00;;;;;;4102299;29;20082;-82
2024/03/02 11:36:32;;;;;;;9.38;4.00;;;11.30;88.40;;;;;;4101830;29;20102;-85
2024/03/02 11:38:36;;;;;;;5.68;3.45;;;11.40;87.70;;;;;;4102396;28;20051;-84
2024/03/02 11:40:42;;;;;;;6.85;3.42;;;11.50;86.00;;;;;;4102045;28;20106;-81
2024/03/02 11:42:44;;;;;;;7.55;2.78;;;11.60;86.20;;;;;;4101647;29;20059;-83
2024/03/02 11:44:49;;;;;;;5.20;2.90;;;11.70;85.60;;;;;;4101668;29;20051;-82
2024/03/02 11:46:54;;;;;;;5.28;3.03;;;11.80;84.10;;;;;;4101955;28;20051;-81
2024/03/02 11:48:56;;;;;;;6.72;2.78;;;11.90;83.50;;;;;;4101721;28;20381;-84
2024/03/02 11:50:59;;;;;;;5.47;2.50;;;12.00;83.00;;;;;;4103051;29;20047;-82
2024/03/02 11:53:01;;;;;;;5.53;2.15;;;12.10;82.20;;;;;;4102754;29;20151;-83
2024/03/02 11:55:07;;;;;;;4.82;2.25;;;12.20;80.70;;;;;;4107271;28;20059;-84
2024/03/02 11:57:11;;;;;;;5.45;2.25;;;12.40;79.60;;;;;;4109608;28;20059;-82
2024/03/02 11:59:14;;;;;;;3.88;2.13;;;12.40;77.80;;;;;;4105510;28;20059;-83
2024/03/02 12:01:15;;;;;;;3.80;1.88;;;12.50;77.70;;;;;;4107232;28;20444;-82
2024/03/02 12:03:17;;;;;;;8.15;3.75;;;12.60;76.60;;;;;;4105812;29;20051;-82
2024/03/02 12:05:20;;;;;;;8.38;4.93;;;12.70;75.30;;;;;;4104278;29;20443;-82
2024/03/02 12:07:23;;;;;;;5.05;1.98;;;12.80;74.70;;;;;;4102148;29;20453;-83
2024/03/02 12:09:26;;;;;;;5.15;1.70;;;12.90;74.40;;;;;;4102300;28;20083;-82
2024/03/02 12:11:27;;;;;;;5.68;2.13;;;13.00;73.60;;;;;;4101542;28;20539;-83
2024/03/02 12:13:31;;;;;;;3.97;1.50;;;13.00;72.30;;;;;;4101323;28;20048;-83
2024/03/02 12:15:33;;;;;;;5.63;1.40;;;13.10;70.20;;;;;;4101334;29;20166;-82
2024/03/02 12:17:35;;;;;;;2.90;1.42;;;13.20;70.20;;;;;;4102484;28;20493;-82
2024/03/02 12:19:37;;;;;;;2.78;1.30;;;13.20;69.60;;;;;;4101493;29;20113;-82
2024/03/02 12:21:39;;;;;;;3.13;1.30;;;13.30;68.00;;;;;;4101362;29;20416;-82
2024/03/02 12:23:43;;;;;;;3.15;1.20;;;13.40;67.50;;;;;;4101108;29;20055;-81
2024/03/02 12:25:45;;;;;;;3.35;1.10;;;13.50;66.50;;;;;;4101076;29;20503;-81
2024/03/02 12:27:48;;;;;;;3.10;1.40;;;13.60;64.40;;;;;;4101214;29;20055;-82
2024/03/02 12:29:52;;;;;;;3.03;1.17;;;13.80;62.90;;;;;;4101909;29;20047;-83
2024/03/02 12:31:54;;;;;;;2.35;0.90;;;13.90;62.80;;;;;;4101247;29;20055;-83
2024/03/02 12:33:55;;;;;;;2.50;1.10;;;14.00;61.60;;;;;;4100830;28;20055;-81
2024/03/02 12:35:58;;;;;;;3.25;1.00;;;14.20;61.50;;;;;;4100941;29;20401;-82
2024/03/02 12:38:00;;;;;;;3.35;0.98;;;14.30;60.90;;;;;;4101360;29;20047;-82
2024/03/02 12:40:02;;;;;;;2.35;1.00;;;14.50;60.50;;;;;;4100668;28;20460;-83
2024/03/02 12:42:04;;;;;;;2.92;1.13;;;14.60;59.90;;;;;;4101134;29;20051;-82
2024/03/02 12:44:06;;;;;;;1.70;0.70;;;14.70;59.40;;;;;;4100925;29;20051;-82
2024/03/02 12:46:09;;;;;;;2.58;0.85;;;14.80;59.20;;;;;;4100812;28;20433;-82
2024/03/02 12:48:10;;;;;;;2.00;0.88;;;14.90;58.50;;;;;;4100648;29;20051;-82
2024/03/02 12:50:13;;;;;;;2.90;1.10;;;15.10;58.80;;;;;;4101599;28;20061;-81
2024/03/02 12:52:14;;;;;;;2.30;1.00;;;15.20;59.50;;;;;;4101743;28;20058;-83
2024/03/02 12:54:17;;;;;;;2.45;0.90;;;15.30;58.50;;;;;;4100070;29;20051;-82
2024/03/02 12:56:18;;;;;;;3.13;1.00;;;15.40;56.40;;;;;;4100688;29;20081;-82
2024/03/02 12:58:23;;;;;;;1.85;0.77;;;15.50;55.80;;;;;;4100292;28;20488;-81
2024/03/02 13:00:25;;;;;;;3.40;1.48;;;15.60;55.60;;;;;;4100804;29;20058;-83
2024/03/02 13:02:31;;;;;;;2.30;1.00;;;15.80;55.90;;;;;;4101174;29;20559;-81
2024/03/02 13:04:33;;;;;;;2.97;1.00;;;15.90;55.40;;;;;;4100637;28;20094;-81
2024/03/02 13:06:35;;;;;;;1.95;0.80;;;16.00;54.80;;;;;;4100490;28;20055;-81
2024/03/02 13:08:36;;;;;;;2.28;1.00;;;16.10;54.80;;;;;;4102846;29;20098;-82
2024/03/02 13:10:41;;;;;;;2.95;1.23;;;16.40;57.60;;;;;;4104512;28;20465;-83
2024/03/02 13:12:42;;;;;;;2.45;1.10;;;16.70;54.90;;;;;;4107661;28;20101;-83
2024/03/02 13:14:44;;;;;;;2.60;1.00;;;16.70;53.40;;;;;;4102143;28;20055;-82
2024/03/02 13:16:46;;;;;;;2.20;1.00;;;16.80;53.50;;;;;;4100726;28;20054;-81
2024/03/02 13:18:50;;;;;;;1.90;0.90;;;17.00;53.00;;;;;;4100135;29;20043;-81
2024/03/02 13:20:51;;;;;;;2.47;1.00;;;17.20;52.80;;;;;;4104081;28;20047;-84
2024/03/02 13:22:53;;;;;;;2.45;0.90;;;17.30;51.80;;;;;;4103117;29;20047;-75
2024/03/02 13:24:55;;;;;;;3.35;1.27;;;17.40;51.00;;;;;;4100792;29;20051;-78
2024/03/02 13:26:58;;;;;;;2.10;0.90;;;17.90;53.80;;;;;;4100040;28;20058;-76
2024/03/02 13:28:59;;;;;;;2.38;1.00;;;18.30;50.90;;;;;;4100401;29;20043;-76
2024/03/02 13:31:00;;;;;;;5.18;1.05;;;18.60;49.30;;;;;;4100367;29;20546;-79
2024/03/02 13:33:02;;;;;;;4.38;1.20;;;19.00;50.30;;;;;;4100071;29;20054;-79
2024/03/02 13:35:05;;;;;;;2.70;1.10;;;19.30;47.70;;;;;;4096279;28;20055;-78
2024/03/02 13:37:07;;;;;;;3.85;1.20;;;19.40;48.60;;;;;;4100154;29;20137;-78
2024/03/02 13:39:09;;;;;;;2.33;1.10;;;19.80;47.00;;;;;;4100018;28;20409;-79
2024/03/02 13:41:11;;;;;;;2.92;1.30;;;20.30;44.30;;;;;;4100324;29;20047;-80
2024/03/02 13:43:12;;;;;;;2.25;1.08;;;20.70;43.10;;;;;;4099877;28;20047;-81
2024/03/02 13:45:15;;;;;;;2.22;1.00;;;21.20;43.50;;;;;;4099756;28;20067;-78
2024/03/02 13:47:17;;;;;;;2.60;1.10;;;21.90;41.30;;;;;;4103108;29;20047;-79
2024/03/02 13:49:19;;;;;;;2.15;1.00;;;24.00;37.50;;;;;;4103581;29;20047;-80
2024/03/02 13:51:23;;;;;;;2.05;0.90;;;28.60;30.10;;;;;;4103310;29;20122;-79
2024/03/02 13:53:24;;;;;;;3.75;1.10;;;31.60;26.70;;;;;;4101982;29;20047;-80
2024/03/02 13:55:26;;;;;;;2.40;1.15;;;33.80;24.60;;;;;;4102830;28;20484;-81
2024/03/02 13:57:28;;;;;;;2.65;1.00;;;35.70;22.60;;;;;;4103041;29;20055;-80
2024/03/02 13:59:29;;;;;;;2.55;1.10;;;36.70;21.50;;;;;;4102647;28;20110;-80
2024/03/02 14:01:32;;;;;;;5.57;1.50;;;38.10;20.60;;;;;;4102950;29;20047;-79
2024/03/02 14:03:34;;;;;;;5.45;1.40;;;39.20;19.80;;;;;;4102654;29;20529;-77
2024/03/02 14:05:37;;;;;;;3.70;1.30;;;39.30;18.90;;;;;;4102327;29;20047;-77
2024/03/02 14:07:41;;;;;;;5.07;1.45;;;39.80;19.10;;;;;;4102857;28;20086;-77
2024/03/02 14:09:43;;;;;;;6.05;2.08;;;40.30;18.10;;;;;;4096066;28;20056;-76
2024/03/02 14:11:45;;;;;;;5.35;1.95;;;40.10;17.30;;;;;;4087558;29;20051;-77
2024/03/02 14:13:49;;;;;;;9.93;2.20;;;39.50;17.10;;;;;;4087018;29;20062;-80
2024/03/02 14:15:51;;;;;;;3.92;1.88;;;39.00;17.50;;;;;;4104138;28;20047;-79
2024/03/02 14:17:53;;;;;;;3.05;1.63;;;38.60;17.70;;;;;;4103600;28;20814;-80
2024/03/02 14:19:55;;;;;;;2.33;1.55;;;38.50;17.70;;;;;;4100317;28;20048;-79
2024/03/02 14:21:57;;;;;;;3.50;1.70;;;38.00;17.90;;;;;;4100039;29;20048;-78
2024/03/02 14:24:00;;;;;;;3.40;1.75;;;37.60;17.80;;;;;;4100498;29;20093;-79
2024/03/02 14:26:02;;;;;;;2.60;1.50;;;37.10;18.00;;;;;;4100711;28;20055;-76
2024/03/02 14:28:05;;;;;;;2.33;1.50;;;36.60;18.10;;;;;;4099817;28;20090;-80
2024/03/02 14:30:09;;;;;;;3.83;1.88;;;36.90;17.70;;;;;;4095680;28;20078;-78
2024/03/02 14:32:10;;;;;;;4.85;3.03;;;37.10;17.50;;;;;;4099866;29;20555;-77
2024/03/02 14:34:12;;;;;;;3.88;1.90;;;36.70;17.00;;;;;;4100076;29;20142;-78
2024/03/02 14:36:14;;;;;;;2.67;1.58;;;37.40;17.70;;;;;;4098367;29;20831;-77
2024/03/02 14:38:16;;;;;;;2.38;1.30;;;37.40;17.80;;;;;;4100060;29;20051;-77
2024/03/02 14:40:21;;;;;;;2.97;1.80;;;37.10;18.10;;;;;;4100418;28;20089;-78
2024/03/02 14:42:23;;;;;;;3.33;2.30;;;37.30;17.20;;;;;;4100649;29;20066;-75
2024/03/02 14:44:24;;;;;;;6.13;4.03;;;37.80;17.40;;;;;;4100636;29;20127;-78
2024/03/02 14:46:27;;;;;;;4.05;2.70;;;38.20;16.80;;;;;;4100212;29;20147;-78
2024/03/02 14:48:29;;;;;;;2.95;1.95;;;37.60;16.90;;;;;;4105233;28;20087;-77
2024/03/02 14:50:31;;;;;;;2.30;1.52;;;37.20;16.50;;;;;;4107257;28;20143;-76
2024/03/02 14:52:33;;;;;;;4.15;1.80;;;36.60;17.00;;;;;;4101565;29;20051;-77
2024/03/02 14:54:35;;;;;;;2.63;1.70;;;36.80;17.40;;;;;;4098808;28;20086;-77
2024/03/02 14:56:38;;;;;;;2.83;1.90;;;36.80;16.60;;;;;;4100292;28;20134;-76
2024/03/02 14:58:40;;;;;;;3.28;1.90;;;37.70;16.90;;;;;;4099831;28;20484;-78
2024/03/02 15:00:41;;;;;;;2.83;1.63;;;38.40;16.50;;;;;;4100068;28;20128;-78
2024/03/02 15:02:43;;;;;;;3.17;1.90;;;38.60;15.90;;;;;;4100368;28;20051;-78
2024/03/02 15:04:47;;;;;;;3.00;1.35;;;39.00;16.60;;;;;;4100297;29;20051;-78
2024/03/02 15:06:49;;;;;;;3.88;1.80;;;39.00;15.80;;;;;;4099825;28;20401;-79
2024/03/02 15:08:51;;;;;;;3.75;1.65;;;37.80;15.90;;;;;;4100094;29;20058;-78
2024/03/02 15:10:55;;;;;;;3.25;1.73;;;36.80;16.70;;;;;;4099540;28;20055;-77
2024/03/02 15:12:58;;;;;;;3.58;1.52;;;35.80;16.40;;;;;;4100062;29;20114;-77
2024/03/02 15:15:00;;;;;;;4.47;1.50;;;35.80;17.10;;;;;;4100180;28;20549;-79
2024/03/02 15:17:02;;;;;;;3.28;1.63;;;34.20;17.80;;;;;;4099941;29;20460;-77
2024/03/02 15:19:04;;;;;;;2.70;1.40;;;34.10;18.20;;;;;;4099738;29;20843;-77
2024/03/02 15:21:05;;;;;;;3.10;1.30;;;33.00;18.30;;;;;;4099669;28;20043;-77
2024/03/02 15:23:07;;;;;;;2.60;1.20;;;31.90;19.00;;;;;;4099483;29;20051;-77
2024/03/02 15:25:09;;;;;;;2.22;1.05;;;30.90;19.00;;;;;;4099607;28;20516;-77
2024/03/02 15:27:11;;;;;;;2.20;1.00;;;29.30;20.40;;;;;;4099628;28;20403;-77
2024/03/02 15:29:14;;;;;;;2.85;1.10;;;27.90;21.40;;;;;;4099919;29;20484;-79
2024/03/02 15:31:17;;;;;;;2.72;1.10;;;27.10;22.60;;;;;;4099841;29;20106;-77
2024/03/02 15:33:19;;;;;;;2.38;1.10;;;26.40;22.70;;;;;;4099204;29;20051;-77
2024/03/02 15:35:20;;;;;;;3.40;1.20;;;25.70;22.90;;;;;;4099355;29;20051;-77
2024/03/02 15:37:22;;;;;;;3.00;1.38;;;25.10;23.80;;;;;;4097789;29;20047;-78
2024/03/02 15:39:24;;;;;;;3.30;1.30;;;24.40;24.70;;;;;;4099582;28;20134;-80
2024/03/02 15:41:26;;;;;;;2.78;1.20;;;24.00;25.40;;;;;;4099474;28;20102;-79
2024/03/02 15:43:29;;;;;;;2.53;1.30;;;23.70;25.80;;;;;;4099318;28;20055;-77
2024/03/02 15:45:33;;;;;;;2.58;1.23;;;23.30;26.40;;;;;;4098957;29;20047;-77
2024/03/02 15:47:36;;;;;;;3.38;1.45;;;22.90;26.60;;;;;;4099170;29;20103;-77
2024/03/02 15:49:40;;;;;;;4.07;1.45;;;22.50;27.40;;;;;;4099170;28;20417;-78
2024/03/02 15:51:43;;;;;;;3.25;1.73;;;22.30;28.20;;;;;;4099134;29;20051;-80
2024/03/02 15:53:45;;;;;;;3.70;1.98;;;22.00;28.80;;;;;;4099298;28;20477;-78
2024/03/02 15:55:46;;;;;;;4.35;1.85;;;21.60;29.80;;;;;;4097535;29;20051;-77
2024/03/02 15:57:48;;;;;;;3.92;1.95;;;21.10;31.50;;;;;;4099386;28;20066;-79
2024/03/02 15:59:50;;;;;;;4.10;2.00;;;20.80;32.90;;;;;;4099134;29;20051;-78
2024/03/02 16:01:52;;;;;;;3.22;1.60;;;20.60;34.70;;;;;;4099799;29;20047;-77
2024/03/02 16:03:54;;;;;;;3.80;1.50;;;20.40;34.90;;;;;;4099204;29;20481;-78
2024/03/02 16:05:56;;;;;;;3.83;1.60;;;20.20;35.70;;;;;;4099177;28;20855;-79
2024/03/02 16:07:58;;;;;;;4.38;1.92;;;19.90;36.50;;;;;;4096947;28;20498;-78
2024/03/02 16:10:04;;;;;;;3.28;1.92;;;19.70;37.80;;;;;;4098131;28;20493;-85
2024/03/02 16:12:07;;;;;;;;;;;19.30;38.60;;;;;;4099233;28;20051;-82
2024/03/02 16:14:09;;;;;;;5.18;2.45;;;19.00;40.00;;;;;;4100455;29;19930;-80
2024/03/02 16:16:12;;;;;;;5.70;3.13;;;18.70;42.90;;;;;;4100714;28;20051;-82
2024/03/02 16:18:15;;;;;;;5.93;3.17;;;18.40;44.70;;;;;;4100071;28;20054;-79
2024/03/02 16:20:17;;;;;;;5.03;2.67;;;18.40;46.70;;;;;;4099873;29;20051;-81
2024/03/02 16:22:19;;;;;;;6.85;3.13;;;18.30;46.70;;;;;;4092392;28;20059;-84
2024/03/02 16:24:21;;;;;;;5.15;2.72;;;18.10;47.50;;;;;;4098979;28;20058;-83
2024/03/02 16:26:23;;;;;;;3.80;2.60;;;17.80;48.30;;;;;;4098112;28;20047;-82
2024/03/02 16:28:25;;;;;;;5.03;2.60;;;17.70;48.90;;;;;;4089521;29;20138;-81
2024/03/02 16:30:27;;;;;;;4.35;2.67;;;17.60;49.60;;;;;;4087928;28;20051;-82
2024/03/02 16:32:29;;;;;;;4.30;2.60;;;17.50;49.90;;;;;;4088640;28;20417;-84